sensor_id;sensor_type;location;lat;lon;timestamp;P1;durP1;ratioP1;P2;durP2;ratioP2
27999;SDS011;15328;50.860;10.562;2023-05-10T00:03:26;3.17;;;2.17;;
27999;SDS011;15328;50.860;10.562;2023-05-10T00:08:26;3.33;;;2.30;;
27999;SDS011;15328;50.860;10.562;2023-05-10T00:13:27;2.87;;;2.30;;
27999;SDS011;15328;50.860;10.562;2023-05-10T00:18:27;6.77;;;2.70;;
27999;SDS011;15328;50.860;10.562;2023-05-10T00:23:27;6.23;;;2.40;;
27999;SDS011;15328;50.860;10.562;2023-05-10T00:28:28;3.17;;;2.37;;
27999;SDS011;15328;50.860;10.562;2023-05-10T00:33:29;2.97;;;2.10;;
27999;SDS011;15328;50.860;10.562;2023-05-10T00:38:29;3.47;;;2.70;;
27999;SDS011;15328;50.860;10.562;2023-05-10T00:43:29;3.80;;;2.30;;
27999;SDS011;15328;50.860;10.562;2023-05-10T00:48:30;3.97;;;2.37;;
27999;SDS011;15328;50.860;10.562;2023-05-10T00:53:31;3.17;;;2.37;;
27999;SDS011;15328;50.860;10.562;2023-05-10T00:58:41;5.35;;;2.10;;
27999;SDS011;15328;50.860;10.562;2023-05-10T01:03:42;3.88;;;2.63;;
27999;SDS011;15328;50.860;10.562;2023-05-10T01:08:42;5.70;;;2.40;;
27999;SDS011;15328;50.860;10.562;2023-05-10T01:13:43;3.97;;;2.45;;
27999;SDS011;15328;50.860;10.562;2023-05-10T01:18:50;2.60;;;2.10;;
27999;SDS011;15328;50.860;10.562;2023-05-10T01:24:06;2.83;;;2.17;;
27999;SDS011;15328;50.860;10.562;2023-05-10T01:34:59;3.67;;;2.60;;
27999;SDS011;15328;50.860;10.562;2023-05-10T01:50:39;4.13;;;3.10;;
27999;SDS011;15328;50.860;10.562;2023-05-10T01:55:44;3.53;;;3.00;;
27999;SDS011;15328;50.860;10.562;2023-05-10T02:00:47;3.50;;;2.70;;
27999;SDS011;15328;50.860;10.562;2023-05-10T02:05:50;4.63;;;2.92;;
27999;SDS011;15328;50.860;10.562;2023-05-10T02:10:53;4.28;;;3.13;;
27999;SDS011;15328;50.860;10.562;2023-05-10T02:15:58;4.57;;;2.75;;
27999;SDS011;15328;50.860;10.562;2023-05-10T02:20:59;4.55;;;3.10;;
27999;SDS011;15328;50.860;10.562;2023-05-10T02:26:01;4.07;;;2.97;;
27999;SDS011;15328;50.860;10.562;2023-05-10T02:31:04;4.25;;;2.97;;
27999;SDS011;15328;50.860;10.562;2023-05-10T02:36:07;3.45;;;2.53;;
27999;SDS011;15328;50.860;10.562;2023-05-10T02:41:09;3.83;;;2.75;;
27999;SDS011;15328;50.860;10.562;2023-05-10T02:46:11;5.40;;;3.22;;
27999;SDS011;15328;50.860;10.562;2023-05-10T02:51:11;4.38;;;2.38;;
27999;SDS011;15328;50.860;10.562;2023-05-10T02:56:15;3.00;;;2.47;;
27999;SDS011;15328;50.860;10.562;2023-05-10T03:01:23;5.22;;;2.85;;
27999;SDS011;15328;50.860;10.562;2023-05-10T03:06:24;3.05;;;2.20;;
27999;SDS011;15328;50.860;10.562;2023-05-10T03:11:43;4.03;;;2.90;;
27999;SDS011;15328;50.860;10.562;2023-05-10T03:21:55;3.67;;;2.53;;
27999;SDS011;15328;50.860;10.562;2023-05-10T03:26:59;4.25;;;2.90;;
27999;SDS011;15328;50.860;10.562;2023-05-10T03:32:02;3.80;;;3.20;;
27999;SDS011;15328;50.860;10.562;2023-05-10T03:37:03;4.15;;;2.70;;
27999;SDS011;15328;50.860;10.562;2023-05-10T03:42:04;3.70;;;2.80;;
27999;SDS011;15328;50.860;10.562;2023-05-10T03:47:04;4.07;;;2.60;;
27999;SDS011;15328;50.860;10.562;2023-05-10T03:52:04;3.67;;;2.90;;
27999;SDS011;15328;50.860;10.562;2023-05-10T03:57:05;3.78;;;2.50;;
27999;SDS011;15328;50.860;10.562;2023-05-10T04:02:05;4.28;;;3.20;;
27999;SDS011;15328;50.860;10.562;2023-05-10T04:07:06;5.10;;;3.23;;
27999;SDS011;15328;50.860;10.562;2023-05-10T04:12:07;5.03;;;3.38;;
27999;SDS011;15328;50.860;10.562;2023-05-10T04:17:08;4.60;;;3.30;;
27999;SDS011;15328;50.860;10.562;2023-05-10T04:22:10;5.80;;;3.95;;
27999;SDS011;15328;50.860;10.562;2023-05-10T04:27:11;3.70;;;3.00;;
27999;SDS011;15328;50.860;10.562;2023-05-10T04:32:11;3.72;;;3.10;;
27999;SDS011;15328;50.860;10.562;2023-05-10T04:37:11;3.27;;;2.40;;
27999;SDS011;15328;50.860;10.562;2023-05-10T04:42:12;3.77;;;2.20;;
27999;SDS011;15328;50.860;10.562;2023-05-10T04:47:14;3.67;;;2.40;;
27999;SDS011;15328;50.860;10.562;2023-05-10T04:52:16;3.20;;;2.25;;
27999;SDS011;15328;50.860;10.562;2023-05-10T04:57:17;2.33;;;1.40;;
27999;SDS011;15328;50.860;10.562;2023-05-10T05:02:18;3.07;;;1.40;;
27999;SDS011;15328;50.860;10.562;2023-05-10T05:07:18;2.13;;;1.50;;
27999;SDS011;15328;50.860;10.562;2023-05-10T05:12:18;2.20;;;1.20;;
27999;SDS011;15328;50.860;10.562;2023-05-10T05:17:19;0.88;;;0.80;;
27999;SDS011;15328;50.860;10.562;2023-05-10T05:22:19;1.07;;;0.77;;
27999;SDS011;15328;50.860;10.562;2023-05-10T05:27:26;1.45;;;0.90;;
27999;SDS011;15328;50.860;10.562;2023-05-10T05:32:27;1.55;;;0.90;;
27999;SDS011;15328;50.860;10.562;2023-05-10T05:37:28;0.80;;;0.60;;
27999;SDS011;15328;50.860;10.562;2023-05-10T05:42:47;0.90;;;0.70;;
27999;SDS011;15328;50.860;10.562;2023-05-10T05:47:49;0.80;;;0.63;;
27999;SDS011;15328;50.860;10.562;2023-05-10T05:52:49;1.85;;;0.65;;
27999;SDS011;15328;50.860;10.562;2023-05-10T05:57:50;1.65;;;0.60;;
27999;SDS011;15328;50.860;10.562;2023-05-10T06:02:50;0.53;;;0.50;;
27999;SDS011;15328;50.860;10.562;2023-05-10T06:07:50;0.60;;;0.50;;
27999;SDS011;15328;50.860;10.562;2023-05-10T06:12:51;0.82;;;0.50;;
27999;SDS011;15328;50.860;10.562;2023-05-10T06:17:51;0.90;;;0.67;;
27999;SDS011;15328;50.860;10.562;2023-05-10T06:22:51;1.40;;;0.50;;
27999;SDS011;15328;50.860;10.562;2023-05-10T06:27:52;0.57;;;0.43;;
27999;SDS011;15328;50.860;10.562;2023-05-10T06:32:57;0.52;;;0.40;;
27999;SDS011;15328;50.860;10.562;2023-05-10T06:37:57;0.30;;;0.30;;
27999;SDS011;15328;50.860;10.562;2023-05-10T06:42:57;0.53;;;0.20;;
27999;SDS011;15328;50.860;10.562;2023-05-10T06:47:58;0.55;;;0.25;;
27999;SDS011;15328;50.860;10.562;2023-05-10T06:52:58;0.57;;;0.30;;
27999;SDS011;15328;50.860;10.562;2023-05-10T06:57:59;0.75;;;0.40;;
27999;SDS011;15328;50.860;10.562;2023-05-10T07:03:00;0.30;;;0.30;;
27999;SDS011;15328;50.860;10.562;2023-05-10T07:08:00;0.20;;;0.20;;
27999;SDS011;15328;50.860;10.562;2023-05-10T07:13:00;0.30;;;0.20;;
27999;SDS011;15328;50.860;10.562;2023-05-10T07:18:01;0.32;;;0.10;;
27999;SDS011;15328;50.860;10.562;2023-05-10T07:23:01;0.47;;;0.10;;
27999;SDS011;15328;50.860;10.562;2023-05-10T07:28:02;0.50;;;0.20;;
27999;SDS011;15328;50.860;10.562;2023-05-10T07:33:02;0.13;;;0.10;;
27999;SDS011;15328;50.860;10.562;2023-05-10T07:38:02;0.10;;;0.10;;
27999;SDS011;15328;50.860;10.562;2023-05-10T07:43:03;0.40;;;0.10;;
27999;SDS011;15328;50.860;10.562;2023-05-10T07:48:03;0.37;;;0.20;;
27999;SDS011;15328;50.860;10.562;2023-05-10T07:53:03;0.10;;;0.10;;
27999;SDS011;15328;50.860;10.562;2023-05-10T07:58:04;0.23;;;0.20;;
27999;SDS011;15328;50.860;10.562;2023-05-10T08:03:04;0.20;;;0.10;;
27999;SDS011;15328;50.860;10.562;2023-05-10T08:08:04;1.60;;;0.17;;
27999;SDS011;15328;50.860;10.562;2023-05-10T08:13:05;0.23;;;0.20;;
27999;SDS011;15328;50.860;10.562;2023-05-10T08:18:06;0.20;;;0.10;;
27999;SDS011;15328;50.860;10.562;2023-05-10T08:23:06;0.20;;;0.13;;
27999;SDS011;15328;50.860;10.562;2023-05-10T08:28:06;0.07;;;0.07;;
27999;SDS011;15328;50.860;10.562;2023-05-10T08:33:07;0.20;;;0.17;;
27999;SDS011;15328;50.860;10.562;2023-05-10T08:38:07;0.75;;;0.20;;
27999;SDS011;15328;50.860;10.562;2023-05-10T08:43:08;0.47;;;0.17;;
27999;SDS011;15328;50.860;10.562;2023-05-10T08:48:10;0.32;;;0.20;;
27999;SDS011;15328;50.860;10.562;2023-05-10T08:53:12;0.20;;;0.20;;
27999;SDS011;15328;50.860;10.562;2023-05-10T08:58:14;0.35;;;0.20;;
27999;SDS011;15328;50.860;10.562;2023-05-10T09:03:14;0.43;;;0.20;;
27999;SDS011;15328;50.860;10.562;2023-05-10T09:08:15;0.43;;;0.40;;
27999;SDS011;15328;50.860;10.562;2023-05-10T09:13:17;0.30;;;0.22;;
27999;SDS011;15328;50.860;10.562;2023-05-10T09:18:18;0.35;;;0.20;;
27999;SDS011;15328;50.860;10.562;2023-05-10T09:23:19;0.63;;;0.20;;
27999;SDS011;15328;50.860;10.562;2023-05-10T09:28:19;0.47;;;0.20;;
27999;SDS011;15328;50.860;10.562;2023-05-10T09:33:20;0.60;;;0.20;;
27999;SDS011;15328;50.860;10.562;2023-05-10T09:38:20;1.15;;;0.40;;
27999;SDS011;15328;50.860;10.562;2023-05-10T09:43:21;1.17;;;0.50;;
27999;SDS011;15328;50.860;10.562;2023-05-10T09:48:23;0.60;;;0.30;;
27999;SDS011;15328;50.860;10.562;2023-05-10T09:53:24;0.38;;;0.30;;
27999;SDS011;15328;50.860;10.562;2023-05-10T09:58:25;0.30;;;0.30;;
27999;SDS011;15328;50.860;10.562;2023-05-10T10:03:25;1.60;;;0.32;;
27999;SDS011;15328;50.860;10.562;2023-05-10T10:08:26;0.47;;;0.32;;
27999;SDS011;15328;50.860;10.562;2023-05-10T10:13:26;0.50;;;0.40;;
27999;SDS011;15328;50.860;10.562;2023-05-10T10:18:27;0.68;;;0.40;;
27999;SDS011;15328;50.860;10.562;2023-05-10T10:23:29;0.82;;;0.60;;
27999;SDS011;15328;50.860;10.562;2023-05-10T10:28:38;0.57;;;0.47;;
27999;SDS011;15328;50.860;10.562;2023-05-10T10:39:10;0.70;;;0.40;;
27999;SDS011;15328;50.860;10.562;2023-05-10T10:44:24;1.00;;;0.52;;
27999;SDS011;15328;50.860;10.562;2023-05-10T10:49:37;2.65;;;0.50;;
27999;SDS011;15328;50.860;10.562;2023-05-10T10:54:49;0.70;;;0.50;;
27999;SDS011;15328;50.860;10.562;2023-05-10T10:59:53;1.60;;;0.80;;
27999;SDS011;15328;50.860;10.562;2023-05-10T11:15:37;1.20;;;0.70;;
27999;SDS011;15328;50.860;10.562;2023-05-10T11:20:39;0.40;;;0.40;;
27999;SDS011;15328;50.860;10.562;2023-05-10T11:25:43;0.22;;;0.20;;
27999;SDS011;15328;50.860;10.562;2023-05-10T11:30:44;1.67;;;0.43;;
27999;SDS011;15328;50.860;10.562;2023-05-10T11:35:45;0.45;;;0.30;;
27999;SDS011;15328;50.860;10.562;2023-05-10T11:40:46;0.60;;;0.30;;
27999;SDS011;15328;50.860;10.562;2023-05-10T11:45:46;0.82;;;0.60;;
27999;SDS011;15328;50.860;10.562;2023-05-10T11:50:47;0.93;;;0.45;;
27999;SDS011;15328;50.860;10.562;2023-05-10T11:55:47;1.90;;;0.80;;
27999;SDS011;15328;50.860;10.562;2023-05-10T12:00:48;0.95;;;0.60;;
27999;SDS011;15328;50.860;10.562;2023-05-10T12:05:49;0.93;;;0.60;;
27999;SDS011;15328;50.860;10.562;2023-05-10T12:10:50;1.00;;;0.60;;
27999;SDS011;15328;50.860;10.562;2023-05-10T12:15:50;0.77;;;0.60;;
27999;SDS011;15328;50.860;10.562;2023-05-10T12:20:51;0.77;;;0.50;;
27999;SDS011;15328;50.860;10.562;2023-05-10T12:25:53;0.93;;;0.63;;
27999;SDS011;15328;50.860;10.562;2023-05-10T12:31:01;1.00;;;0.60;;
27999;SDS011;15328;50.860;10.562;2023-05-10T12:36:03;1.27;;;0.73;;
27999;SDS011;15328;50.860;10.562;2023-05-10T12:41:04;1.85;;;0.75;;
27999;SDS011;15328;50.860;10.562;2023-05-10T12:46:10;0.85;;;0.70;;
27999;SDS011;15328;50.860;10.562;2023-05-10T12:51:11;1.52;;;0.70;;
27999;SDS011;15328;50.860;10.562;2023-05-10T12:56:15;0.90;;;0.70;;
27999;SDS011;15328;50.860;10.562;2023-05-10T13:01:15;1.37;;;0.80;;
27999;SDS011;15328;50.860;10.562;2023-05-10T13:06:15;0.70;;;0.70;;
27999;SDS011;15328;50.860;10.562;2023-05-10T13:11:16;0.93;;;0.70;;
27999;SDS011;15328;50.860;10.562;2023-05-10T13:16:16;0.80;;;0.63;;
27999;SDS011;15328;50.860;10.562;2023-05-10T13:21:17;1.33;;;0.60;;
27999;SDS011;15328;50.860;10.562;2023-05-10T13:26:17;1.00;;;0.60;;
27999;SDS011;15328;50.860;10.562;2023-05-10T13:31:18;0.98;;;0.70;;
27999;SDS011;15328;50.860;10.562;2023-05-10T13:36:18;0.83;;;0.60;;
27999;SDS011;15328;50.860;10.562;2023-05-10T13:41:18;1.50;;;0.90;;
27999;SDS011;15328;50.860;10.562;2023-05-10T13:46:19;0.90;;;0.60;;
27999;SDS011;15328;50.860;10.562;2023-05-10T13:51:19;1.15;;;0.88;;
27999;SDS011;15328;50.860;10.562;2023-05-10T13:56:20;0.80;;;0.60;;
27999;SDS011;15328;50.860;10.562;2023-05-10T14:01:20;0.70;;;0.60;;
27999;SDS011;15328;50.860;10.562;2023-05-10T14:06:20;0.90;;;0.67;;
27999;SDS011;15328;50.860;10.562;2023-05-10T14:11:21;0.98;;;0.88;;
27999;SDS011;15328;50.860;10.562;2023-05-10T14:16:21;0.60;;;0.50;;
27999;SDS011;15328;50.860;10.562;2023-05-10T14:21:22;1.20;;;0.90;;
27999;SDS011;15328;50.860;10.562;2023-05-10T14:26:23;0.75;;;0.68;;
27999;SDS011;15328;50.860;10.562;2023-05-10T14:31:23;1.60;;;0.80;;
27999;SDS011;15328;50.860;10.562;2023-05-10T14:36:25;0.85;;;0.70;;
27999;SDS011;15328;50.860;10.562;2023-05-10T14:41:25;2.30;;;0.90;;
27999;SDS011;15328;50.860;10.562;2023-05-10T14:46:26;0.90;;;0.70;;
27999;SDS011;15328;50.860;10.562;2023-05-10T14:51:26;1.15;;;0.65;;
27999;SDS011;15328;50.860;10.562;2023-05-10T14:56:27;1.33;;;0.70;;
27999;SDS011;15328;50.860;10.562;2023-05-10T15:01:27;0.80;;;0.75;;
27999;SDS011;15328;50.860;10.562;2023-05-10T15:06:31;9.87;;;7.83;;
27999;SDS011;15328;50.860;10.562;2023-05-10T15:11:32;3.83;;;2.83;;
27999;SDS011;15328;50.860;10.562;2023-05-10T15:16:33;1.65;;;0.95;;
27999;SDS011;15328;50.860;10.562;2023-05-10T15:21:33;4.30;;;2.10;;
27999;SDS011;15328;50.860;10.562;2023-05-10T15:26:38;0.80;;;0.50;;
27999;SDS011;15328;50.860;10.562;2023-05-10T15:31:38;1.42;;;0.55;;
27999;SDS011;15328;50.860;10.562;2023-05-10T15:36:39;1.20;;;0.60;;
27999;SDS011;15328;50.860;10.562;2023-05-10T15:41:39;2.50;;;1.70;;
27999;SDS011;15328;50.860;10.562;2023-05-10T15:46:40;0.93;;;0.50;;
27999;SDS011;15328;50.860;10.562;2023-05-10T15:51:40;0.93;;;0.52;;
27999;SDS011;15328;50.860;10.562;2023-05-10T15:56:41;0.93;;;0.40;;
27999;SDS011;15328;50.860;10.562;2023-05-10T16:01:41;0.60;;;0.40;;
27999;SDS011;15328;50.860;10.562;2023-05-10T16:06:41;1.03;;;0.50;;
27999;SDS011;15328;50.860;10.562;2023-05-10T16:11:42;1.00;;;0.65;;
27999;SDS011;15328;50.860;10.562;2023-05-10T16:16:43;1.83;;;0.50;;
27999;SDS011;15328;50.860;10.562;2023-05-10T16:21:43;1.27;;;0.55;;
27999;SDS011;15328;50.860;10.562;2023-05-10T16:26:44;0.93;;;0.60;;
27999;SDS011;15328;50.860;10.562;2023-05-10T16:31:44;0.82;;;0.50;;
27999;SDS011;15328;50.860;10.562;2023-05-10T16:36:45;1.20;;;0.65;;
27999;SDS011;15328;50.860;10.562;2023-05-10T16:41:45;1.10;;;0.60;;
27999;SDS011;15328;50.860;10.562;2023-05-10T16:46:45;0.83;;;0.60;;
27999;SDS011;15328;50.860;10.562;2023-05-10T16:51:49;1.40;;;0.57;;
27999;SDS011;15328;50.860;10.562;2023-05-10T16:56:49;0.70;;;0.55;;
27999;SDS011;15328;50.860;10.562;2023-05-10T17:01:53;1.30;;;0.80;;
27999;SDS011;15328;50.860;10.562;2023-05-10T17:06:53;1.42;;;1.00;;
27999;SDS011;15328;50.860;10.562;2023-05-10T17:11:54;1.03;;;0.70;;
27999;SDS011;15328;50.860;10.562;2023-05-10T17:16:54;1.08;;;0.70;;
27999;SDS011;15328;50.860;10.562;2023-05-10T17:21:54;1.40;;;1.00;;
27999;SDS011;15328;50.860;10.562;2023-05-10T17:26:55;1.40;;;0.90;;
27999;SDS011;15328;50.860;10.562;2023-05-10T17:31:56;1.27;;;0.73;;
27999;SDS011;15328;50.860;10.562;2023-05-10T17:36:57;1.42;;;0.95;;
27999;SDS011;15328;50.860;10.562;2023-05-10T17:41:58;1.17;;;0.77;;
27999;SDS011;15328;50.860;10.562;2023-05-10T17:46:58;0.80;;;0.77;;
27999;SDS011;15328;50.860;10.562;2023-05-10T17:51:59;1.13;;;0.60;;
27999;SDS011;15328;50.860;10.562;2023-05-10T17:56:59;1.50;;;0.95;;
27999;SDS011;15328;50.860;10.562;2023-05-10T18:02:01;1.45;;;0.80;;
27999;SDS011;15328;50.860;10.562;2023-05-10T18:07:01;1.27;;;0.70;;
27999;SDS011;15328;50.860;10.562;2023-05-10T18:12:02;0.93;;;0.68;;
27999;SDS011;15328;50.860;10.562;2023-05-10T18:17:02;0.80;;;0.60;;
27999;SDS011;15328;50.860;10.562;2023-05-10T18:22:03;1.03;;;0.77;;
27999;SDS011;15328;50.860;10.562;2023-05-10T18:27:03;1.00;;;0.80;;
27999;SDS011;15328;50.860;10.562;2023-05-10T18:32:05;0.80;;;0.60;;
27999;SDS011;15328;50.860;10.562;2023-05-10T18:37:05;1.15;;;0.68;;
27999;SDS011;15328;50.860;10.562;2023-05-10T18:42:07;1.20;;;0.90;;
27999;SDS011;15328;50.860;10.562;2023-05-10T18:47:07;7.03;;;4.50;;
27999;SDS011;15328;50.860;10.562;2023-05-10T18:52:08;5.35;;;3.70;;
27999;SDS011;15328;50.860;10.562;2023-05-10T18:57:08;3.08;;;2.25;;
27999;SDS011;15328;50.860;10.562;2023-05-10T19:02:08;1.97;;;1.43;;
27999;SDS011;15328;50.860;10.562;2023-05-10T19:07:09;2.17;;;1.20;;
27999;SDS011;15328;50.860;10.562;2023-05-10T19:12:09;1.17;;;0.90;;
27999;SDS011;15328;50.860;10.562;2023-05-10T19:17:10;1.30;;;0.93;;
27999;SDS011;15328;50.860;10.562;2023-05-10T19:22:10;1.20;;;0.90;;
27999;SDS011;15328;50.860;10.562;2023-05-10T19:27:10;1.10;;;0.83;;
27999;SDS011;15328;50.860;10.562;2023-05-10T19:32:11;1.17;;;0.73;;
27999;SDS011;15328;50.860;10.562;2023-05-10T19:37:11;1.15;;;0.90;;
27999;SDS011;15328;50.860;10.562;2023-05-10T19:42:11;0.82;;;0.68;;
27999;SDS011;15328;50.860;10.562;2023-05-10T19:47:12;1.63;;;1.10;;
27999;SDS011;15328;50.860;10.562;2023-05-10T19:52:12;2.00;;;1.10;;
27999;SDS011;15328;50.860;10.562;2023-05-10T19:57:12;2.10;;;1.20;;
27999;SDS011;15328;50.860;10.562;2023-05-10T20:02:13;0.88;;;0.77;;
27999;SDS011;15328;50.860;10.562;2023-05-10T20:07:13;1.17;;;0.80;;
27999;SDS011;15328;50.860;10.562;2023-05-10T20:12:14;1.97;;;1.03;;
27999;SDS011;15328;50.860;10.562;2023-05-10T20:17:14;1.60;;;1.00;;
27999;SDS011;15328;50.860;10.562;2023-05-10T20:22:14;1.42;;;1.10;;
27999;SDS011;15328;50.860;10.562;2023-05-10T20:27:15;1.77;;;1.10;;
27999;SDS011;15328;50.860;10.562;2023-05-10T20:32:15;2.57;;;1.60;;
27999;SDS011;15328;50.860;10.562;2023-05-10T20:37:15;1.70;;;1.33;;
27999;SDS011;15328;50.860;10.562;2023-05-10T20:42:16;1.30;;;1.00;;
27999;SDS011;15328;50.860;10.562;2023-05-10T20:47:17;1.60;;;1.10;;
27999;SDS011;15328;50.860;10.562;2023-05-10T20:52:17;1.20;;;1.00;;
27999;SDS011;15328;50.860;10.562;2023-05-10T20:57:18;1.10;;;0.90;;
27999;SDS011;15328;50.860;10.562;2023-05-10T21:02:19;1.25;;;0.90;;
27999;SDS011;15328;50.860;10.562;2023-05-10T21:07:19;1.00;;;0.88;;
27999;SDS011;15328;50.860;10.562;2023-05-10T21:12:19;1.50;;;1.00;;
27999;SDS011;15328;50.860;10.562;2023-05-10T21:17:20;1.25;;;1.05;;
27999;SDS011;15328;50.860;10.562;2023-05-10T21:22:20;2.00;;;1.10;;
27999;SDS011;15328;50.860;10.562;2023-05-10T21:27:20;1.30;;;0.80;;
27999;SDS011;15328;50.860;10.562;2023-05-10T21:32:21;1.43;;;0.80;;
27999;SDS011;15328;50.860;10.562;2023-05-10T21:37:21;1.27;;;0.88;;
27999;SDS011;15328;50.860;10.562;2023-05-10T21:42:21;1.00;;;0.70;;
27999;SDS011;15328;50.860;10.562;2023-05-10T21:47:22;2.30;;;0.93;;
27999;SDS011;15328;50.860;10.562;2023-05-10T21:52:22;1.52;;;1.10;;
27999;SDS011;15328;50.860;10.562;2023-05-10T21:57:22;1.00;;;0.90;;
27999;SDS011;15328;50.860;10.562;2023-05-10T22:02:23;1.10;;;0.90;;
27999;SDS011;15328;50.860;10.562;2023-05-10T22:07:23;1.10;;;0.80;;
27999;SDS011;15328;50.860;10.562;2023-05-10T22:12:24;1.60;;;1.00;;
27999;SDS011;15328;50.860;10.562;2023-05-10T22:17:24;1.13;;;0.88;;
27999;SDS011;15328;50.860;10.562;2023-05-10T22:22:25;1.05;;;0.90;;
27999;SDS011;15328;50.860;10.562;2023-05-10T22:27:25;1.65;;;0.90;;
27999;SDS011;15328;50.860;10.562;2023-05-10T22:32:26;1.83;;;1.03;;
27999;SDS011;15328;50.860;10.562;2023-05-10T22:37:26;2.97;;;0.98;;
27999;SDS011;15328;50.860;10.562;2023-05-10T22:42:26;1.63;;;1.00;;
27999;SDS011;15328;50.860;10.562;2023-05-10T22:47:27;1.35;;;1.10;;
27999;SDS011;15328;50.860;10.562;2023-05-10T22:52:27;1.73;;;1.13;;
27999;SDS011;15328;50.860;10.562;2023-05-10T22:57:28;3.15;;;1.13;;
27999;SDS011;15328;50.860;10.562;2023-05-10T23:02:29;1.40;;;1.00;;
27999;SDS011;15328;50.860;10.562;2023-05-10T23:07:30;1.02;;;0.80;;
27999;SDS011;15328;50.860;10.562;2023-05-10T23:12:30;1.70;;;1.10;;
27999;SDS011;15328;50.860;10.562;2023-05-10T23:17:30;1.00;;;0.80;;
27999;SDS011;15328;50.860;10.562;2023-05-10T23:22:31;1.15;;;0.90;;
27999;SDS011;15328;50.860;10.562;2023-05-10T23:27:31;1.25;;;0.90;;
27999;SDS011;15328;50.860;10.562;2023-05-10T23:32:32;1.50;;;1.00;;
27999;SDS011;15328;50.860;10.562;2023-05-10T23:37:32;1.63;;;1.02;;
27999;SDS011;15328;50.860;10.562;2023-05-10T23:42:32;1.33;;;0.93;;
27999;SDS011;15328;50.860;10.562;2023-05-10T23:47:33;1.13;;;0.95;;
27999;SDS011;15328;50.860;10.562;2023-05-10T23:52:33;1.70;;;1.00;;
27999;SDS011;15328;50.860;10.562;2023-05-10T23:57:33;1.30;;;1.00;;
